Time;durP1;ratioP1;P1;durP2;ratioP2;P2;SDS_P1;SDS_P2;PMS_P1;PMS_P2;Temp;Humidity;BMP_temperature;BMP_pressure;BME280_temperature;BME280_humidity;BME280_pressure;Samples;Min_cycle;Max_cycle;Signal;HPM_P1;HPM_P2
2023/06/08 00:00:44;;;;;;;8.07;6.20;;;22.00;56.10;;;;;;5031901;28;20446;-49
2023/06/08 00:03:12;;;;;;;9.13;5.43;;;22.00;56.50;;;;;;5031320;28;20479;-47
2023/06/08 00:05:44;;;;;;;7.60;5.40;;;21.80;56.90;;;;;;5031812;28;20857;-47
2023/06/08 00:08:11;;;;;;;9.03;5.30;;;21.90;57.20;;;;;;5031572;28;20432;-49
2023/06/08 00:10:38;;;;;;;10.60;5.97;;;21.90;57.10;;;;;;5031796;28;20447;-48
2023/06/08 00:13:05;;;;;;;10.30;5.70;;;21.80;57.00;;;;;;5031993;28;20434;-49
2023/06/08 00:15:32;;;;;;;8.97;5.90;;;21.80;57.00;;;;;;5031936;28;20443;-48
2023/06/08 00:18:00;;;;;;;9.50;6.00;;;22.10;57.30;;;;;;5032447;28;20921;-48
2023/06/08 00:20:28;;;;;;;6.10;5.50;;;21.70;57.10;;;;;;5031480;28;20434;-50
2023/06/08 00:22:56;;;;;;;7.90;5.47;;;21.70;57.10;;;;;;5031673;28;20478;-48
2023/06/08 00:25:23;;;;;;;12.67;6.23;;;21.60;57.30;;;;;;5031723;28;20435;-48
2023/06/08 00:27:50;;;;;;;6.80;5.50;;;21.60;57.70;;;;;;5031593;28;20450;-48
2023/06/08 00:30:16;;;;;;;6.20;5.60;;;21.40;57.80;;;;;;5031607;28;20481;-48
2023/06/08 00:32:44;;;;;;;6.57;4.70;;;21.50;57.90;;;;;;5031651;28;20432;-48
2023/06/08 00:35:10;;;;;;;7.30;4.90;;;21.50;58.60;;;;;;5031932;28;20435;-47
2023/06/08 00:37:38;;;;;;;6.30;4.63;;;21.40;58.90;;;;;;5031616;28;20537;-49
2023/06/08 00:40:06;;;;;;;6.90;5.27;;;21.40;59.30;;;;;;5031286;28;20427;-48
2023/06/08 00:42:32;;;;;;;8.10;4.93;;;21.30;59.20;;;;;;5013619;28;20478;-48
2023/06/08 00:44:59;;;;;;;6.73;4.77;;;21.30;59.60;;;;;;5031679;28;20434;-49
2023/06/08 00:47:26;;;;;;;7.83;5.93;;;21.30;59.80;;;;;;5031481;28;20476;-48
2023/06/08 00:49:54;;;;;;;13.43;7.80;;;21.20;59.90;;;;;;5031296;28;20433;-48
2023/06/08 00:52:22;;;;;;;7.50;4.80;;;21.10;60.00;;;;;;5013842;28;20806;-47
2023/06/08 00:54:50;;;;;;;8.27;5.30;;;21.10;60.20;;;;;;5031533;28;20437;-47
2023/06/08 00:57:19;;;;;;;8.47;4.83;;;21.00;60.40;;;;;;5031478;28;20453;-48
2023/06/08 00:59:49;;;;;;;6.77;5.07;;;21.00;60.60;;;;;;5031059;28;20438;-49
2023/06/08 01:02:16;;;;;;;10.33;4.60;;;20.90;60.70;;;;;;5013760;28;20446;-50
2023/06/08 01:04:44;;;;;;;16.73;5.10;;;20.90;61.10;;;;;;5031472;28;20441;-48
2023/06/08 01:07:22;;;;;;;9.87;4.70;;;20.80;61.00;;;;;;5013624;28;20462;-47
2023/06/08 01:09:55;;;;;;;7.93;5.20;;;20.80;61.30;;;;;;5031224;28;20437;-48
2023/06/08 01:12:33;;;;;;;6.03;5.10;;;20.70;61.40;;;;;;5031420;28;20464;-48
2023/06/08 01:15:09;;;;;;;9.30;5.77;;;20.70;61.60;;;;;;5015584;28;20550;-47
2023/06/08 01:17:40;;;;;;;8.10;5.57;;;20.60;61.60;;;;;;5034856;28;21028;-48
2023/06/08 01:20:24;;;;;;;6.10;4.60;;;20.60;61.70;;;;;;5016785;28;20456;-48
2023/06/08 01:23:04;;;;;;;7.27;5.27;;;20.50;61.50;;;;;;5034882;28;20486;-48
2023/06/08 01:25:35;;;;;;;6.73;5.33;;;20.60;61.70;;;;;;5034859;28;20431;-50
2023/06/08 01:28:12;;;;;;;6.37;5.30;;;20.50;61.60;;;;;;5034748;28;20524;-49
2023/06/08 01:30:40;;;;;;;11.03;5.40;;;20.70;61.70;;;;;;5035251;28;20440;-48
2023/06/08 01:33:07;;;;;;;7.73;5.63;;;20.40;61.60;;;;;;5016992;28;20819;-48
2023/06/08 01:35:34;;;;;;;7.43;5.80;;;20.40;61.70;;;;;;5034499;28;20460;-47
2023/06/08 01:38:09;;;;;;;7.57;5.33;;;20.30;61.60;;;;;;5035068;28;20529;-47
2023/06/08 01:40:43;;;;;;;6.83;5.00;;;20.40;61.70;;;;;;5016778;28;20975;-48
2023/06/08 01:43:12;;;;;;;8.30;5.00;;;20.50;61.80;;;;;;5034486;28;20480;-47
2023/06/08 01:45:44;;;;;;;7.10;5.63;;;20.30;61.60;;;;;;5034436;28;20464;-48
2023/06/08 01:48:12;;;;;;;6.57;5.80;;;20.30;61.60;;;;;;5034054;28;20933;-48
2023/06/08 01:50:40;;;;;;;8.10;5.00;;;20.30;61.50;;;;;;5016584;28;20453;-48
2023/06/08 01:53:07;;;;;;;8.03;5.67;;;20.20;61.30;;;;;;5016892;28;20846;-47
2023/06/08 01:55:34;;;;;;;6.57;5.37;;;20.20;61.30;;;;;;5034265;28;20825;-48
2023/06/08 01:58:02;;;;;;;7.67;5.73;;;20.20;61.50;;;;;;5034514;28;20433;-46
2023/06/08 02:00:30;;;;;;;7.07;5.53;;;20.10;61.00;;;;;;5016118;28;20556;-47
2023/06/08 02:02:56;;;;;;;7.00;5.33;;;20.10;61.60;;;;;;5034136;28;20990;-47
2023/06/08 02:05:23;;;;;;;7.73;5.33;;;20.10;61.60;;;;;;5016348;28;20561;-48
2023/06/08 02:07:50;;;;;;;8.33;5.27;;;20.00;61.40;;;;;;5016292;28;20471;-47
2023/06/08 02:10:17;;;;;;;6.13;5.23;;;20.10;61.50;;;;;;5033678;28;20527;-47
2023/06/08 02:12:43;;;;;;;6.40;5.10;;;20.00;61.40;;;;;;5034024;28;20479;-47
2023/06/08 02:15:13;;;;;;;9.50;5.90;;;20.00;61.50;;;;;;5016327;28;20486;-48
2023/06/08 02:17:41;;;;;;;7.40;5.53;;;19.60;61.00;;;;;;5033932;28;20436;-48
2023/06/08 02:20:09;;;;;;;5.77;5.00;;;19.90;61.60;;;;;;5015688;28;20448;-48
2023/06/08 02:22:37;;;;;;;8.83;5.53;;;19.90;61.80;;;;;;5016256;28;20500;-48
2023/06/08 02:25:04;;;;;;;7.53;5.50;;;19.40;61.60;;;;;;5015899;28;20982;-47
2023/06/08 02:27:35;;;;;;;7.80;5.40;;;19.50;62.00;;;;;;5015424;28;21004;-47
2023/06/08 02:30:04;;;;;;;6.20;5.30;;;19.70;62.50;;;;;;5015609;28;20463;-47
2023/06/08 02:32:32;;;;;;;8.20;5.97;;;19.60;62.40;;;;;;5033595;28;20436;-47
2023/06/08 02:35:00;;;;;;;6.10;5.50;;;19.60;62.60;;;;;;5015672;28;20452;-47
2023/06/08 02:37:27;;;;;;;6.27;5.60;;;19.60;62.40;;;;;;5015690;28;20845;-47
2023/06/08 02:39:54;;;;;;;8.93;6.47;;;19.50;62.30;;;;;;5015221;28;20456;-48
2023/06/08 02:42:21;;;;;;;7.30;5.93;;;19.50;62.40;;;;;;5015620;28;20547;-47
2023/06/08 02:44:48;;;;;;;5.87;5.27;;;19.60;62.60;;;;;;5015532;28;20830;-48
2023/06/08 02:47:17;;;;;;;6.87;5.00;;;19.40;62.50;;;;;;5015400;28;20489;-48
2023/06/08 02:49:45;;;;;;;7.30;5.57;;;19.40;62.40;;;;;;5015221;28;20455;-47
2023/06/08 02:52:12;;;;;;;5.73;5.13;;;19.40;62.40;;;;;;5015390;28;20447;-47
2023/06/08 02:54:38;;;;;;;6.93;5.40;;;19.40;62.60;;;;;;5015383;28;20458;-48
2023/06/08 02:57:06;;;;;;;10.83;5.00;;;19.60;62.70;;;;;;5033245;28;20869;-47
2023/06/08 02:59:40;;;;;;;6.73;5.17;;;19.30;62.30;;;;;;5014926;28;20451;-46
2023/06/08 03:02:08;;;;;;;7.30;5.50;;;19.30;62.30;;;;;;5015343;28;20978;-47
2023/06/08 03:04:37;;;;;;;9.40;5.50;;;19.30;62.20;;;;;;5015169;28;20483;-47
2023/06/08 03:07:09;;;;;;;9.47;7.07;;;19.30;62.20;;;;;;5015136;28;20471;-48
2023/06/08 03:09:36;;;;;;;11.07;6.60;;;19.30;62.20;;;;;;5014667;28;20455;-48
2023/06/08 03:12:08;;;;;;;11.73;5.83;;;19.30;62.40;;;;;;5015115;28;20518;-47
2023/06/08 03:14:35;;;;;;;6.53;5.40;;;19.30;62.40;;;;;;5015043;28;20457;-47
2023/06/08 03:17:04;;;;;;;6.60;5.90;;;19.20;62.40;;;;;;5015128;28;20471;-49
2023/06/08 03:19:37;;;;;;;9.23;5.47;;;19.20;62.10;;;;;;5014659;28;20451;-48
2023/06/08 03:22:07;;;;;;;7.50;5.93;;;19.30;62.10;;;;;;5014784;28;20967;-48
2023/06/08 03:24:42;;;;;;;6.73;5.80;;;19.20;62.10;;;;;;5015036;28;20845;-47
2023/06/08 03:27:10;;;;;;;6.97;5.20;;;19.00;61.70;;;;;;5014536;28;20508;-47
2023/06/08 03:29:37;;;;;;;7.43;5.87;;;19.20;61.80;;;;;;5014473;28;20466;-49
2023/06/08 03:32:07;;;;;;;8.53;5.53;;;19.20;61.60;;;;;;5015034;28;20463;-47
2023/06/08 03:34:34;;;;;;;7.83;5.53;;;19.20;61.40;;;;;;5032881;28;20846;-48
2023/06/08 03:37:08;;;;;;;7.00;5.73;;;19.20;61.30;;;;;;5014736;28;20470;-47
2023/06/08 03:39:37;;;;;;;9.33;7.20;;;19.10;61.10;;;;;;5014559;28;20455;-48
2023/06/08 03:42:05;;;;;;;8.03;5.40;;;19.10;60.90;;;;;;5032812;28;20441;-48
2023/06/08 03:44:35;;;;;;;7.47;5.87;;;19.20;61.00;;;;;;5014547;28;20487;-49
2023/06/08 03:47:02;;;;;;;6.57;5.63;;;19.20;60.80;;;;;;5014417;28;20483;-48
2023/06/08 03:49:31;;;;;;;11.83;5.63;;;19.20;60.80;;;;;;5032089;28;20427;-49
2023/06/08 03:51:58;;;;;;;7.10;5.60;;;19.20;60.50;;;;;;5014555;28;20986;-48
2023/06/08 03:54:26;;;;;;;8.47;6.27;;;19.40;60.40;;;;;;5014808;28;20443;-48
2023/06/08 03:56:52;;;;;;;10.33;6.10;;;18.80;59.80;;;;;;5014252;28;20474;-48
2023/06/08 03:59:19;;;;;;;8.13;6.33;;;19.10;59.70;;;;;;5013982;28;20473;-47
2023/06/08 04:01:47;;;;;;;6.60;5.77;;;19.40;59.80;;;;;;5014240;28;20456;-47
2023/06/08 04:04:15;;;;;;;7.23;6.30;;;19.40;59.30;;;;;;5014064;28;20860;-47
2023/06/08 04:06:42;;;;;;;7.50;5.20;;;20.00;59.50;;;;;;5031786;28;20455;-48
2023/06/08 04:09:11;;;;;;;9.20;6.20;;;19.70;59.00;;;;;;5013893;28;20455;-48
2023/06/08 04:11:39;;;;;;;6.30;5.53;;;19.90;59.10;;;;;;5014193;28;20452;-47
2023/06/08 04:14:06;;;;;;;8.70;5.13;;;20.00;58.80;;;;;;5014019;28;20460;-47
2023/06/08 04:16:36;;;;;;;8.77;5.60;;;20.00;58.50;;;;;;5013983;28;20484;-48
2023/06/08 04:19:03;;;;;;;7.60;5.57;;;20.00;58.10;;;;;;5013590;28;20463;-48
2023/06/08 04:21:30;;;;;;;6.60;5.53;;;20.30;58.10;;;;;;5014149;28;20443;-47
2023/06/08 04:24:05;;;;;;;9.33;5.57;;;20.40;57.80;;;;;;5013869;28;20482;-47
2023/06/08 04:26:34;;;;;;;6.63;5.93;;;20.40;57.60;;;;;;5014042;28;20841;-46
2023/06/08 04:29:04;;;;;;;11.07;6.30;;;20.50;57.20;;;;;;5013653;28;20460;-47
2023/06/08 04:31:31;;;;;;;10.17;5.10;;;20.60;57.00;;;;;;5014024;28;20448;-47
2023/06/08 04:33:58;;;;;;;8.53;6.60;;;20.70;56.90;;;;;;5013906;28;20450;-47
2023/06/08 04:36:25;;;;;;;9.57;5.90;;;20.90;56.70;;;;;;5013872;28;20568;-47
2023/06/08 04:38:53;;;;;;;6.87;6.27;;;21.00;56.40;;;;;;5013534;28;20449;-48
2023/06/08 04:41:25;;;;;;;8.30;6.30;;;21.10;56.10;;;;;;5013756;28;20535;-47
2023/06/08 04:43:53;;;;;;;8.20;6.10;;;21.10;56.00;;;;;;5013797;28;20486;-48
2023/06/08 04:46:25;;;;;;;8.60;6.53;;;21.20;55.60;;;;;;5013442;28;20561;-47
2023/06/08 04:48:53;;;;;;;8.50;6.90;;;21.00;55.10;;;;;;5013692;28;20453;-46
2023/06/08 04:51:23;;;;;;;7.17;5.63;;;21.20;54.60;;;;;;5035309;28;20440;-47
2023/06/08 04:53:53;;;;;;;7.70;5.87;;;21.20;54.70;;;;;;5035498;28;20991;-47
2023/06/08 04:56:24;;;;;;;8.70;5.93;;;21.40;55.10;;;;;;5017415;28;20492;-47
2023/06/08 04:58:50;;;;;;;12.03;6.00;;;21.40;54.80;;;;;;5034819;28;20435;-46
2023/06/08 05:01:19;;;;;;;11.37;5.60;;;21.40;54.90;;;;;;5035131;28;20463;-47
2023/06/08 05:03:47;;;;;;;8.53;6.00;;;21.20;54.90;;;;;;5017054;28;20451;-48
2023/06/08 05:06:14;;;;;;;6.77;5.67;;;21.30;55.00;;;;;;5017148;28;20475;-47
2023/06/08 05:08:41;;;;;;;7.57;5.37;;;21.30;55.00;;;;;;5017683;28;20442;-47
2023/06/08 05:11:08;;;;;;;5.70;5.20;;;21.30;55.10;;;;;;5017152;28;20442;-47
2023/06/08 05:13:35;;;;;;;6.80;5.60;;;21.20;55.00;;;;;;5035162;28;20527;-47
2023/06/08 05:16:03;;;;;;;7.17;5.90;;;21.10;54.70;;;;;;5034933;28;20469;-48
2023/06/08 05:18:30;;;;;;;10.30;5.70;;;21.20;54.70;;;;;;5034698;28;20445;-48
2023/06/08 05:20:58;;;;;;;10.23;6.23;;;21.10;54.80;;;;;;5035033;28;20408;-48
2023/06/08 05:23:24;;;;;;;8.23;6.03;;;21.20;55.10;;;;;;5034929;28;20441;-47
2023/06/08 05:25:51;;;;;;;9.73;6.33;;;21.20;55.00;;;;;;5034901;28;20528;-47
2023/06/08 05:28:18;;;;;;;10.90;6.30;;;21.30;54.80;;;;;;5034709;28;20953;-46
2023/06/08 05:30:45;;;;;;;10.73;5.97;;;21.40;54.70;;;;;;5035201;28;20533;-48
2023/06/08 05:33:11;;;;;;;7.30;5.43;;;21.50;54.60;;;;;;5034918;28;20768;-48
2023/06/08 05:35:38;;;;;;;7.63;6.13;;;21.40;54.50;;;;;;5034947;28;20446;-47
2023/06/08 05:38:06;;;;;;;6.43;4.93;;;21.40;54.50;;;;;;5035023;28;20621;-48
2023/06/08 05:40:35;;;;;;;7.00;5.23;;;21.50;54.60;;;;;;5035092;28;20443;-48
2023/06/08 05:43:02;;;;;;;13.23;5.30;;;21.50;54.60;;;;;;5035308;28;20861;-47
2023/06/08 05:45:28;;;;;;;8.10;5.43;;;21.60;54.60;;;;;;5033845;28;20489;-48
2023/06/08 05:47:55;;;;;;;7.97;6.23;;;21.90;54.80;;;;;;5048160;22;20556;-50
2023/06/08 05:50:21;;;;;;;5.77;4.80;;;22.10;54.00;;;;;;5033928;28;20522;-50
2023/06/08 05:52:48;;;;;;;8.30;5.07;;;22.20;53.80;;;;;;5034184;28;20485;-49
2023/06/08 05:55:16;;;;;;;12.70;5.60;;;22.60;53.60;;;;;;5034289;28;20436;-50
2023/06/08 05:57:43;;;;;;;8.30;6.20;;;22.80;53.10;;;;;;5034078;28;20546;-51
2023/06/08 06:00:12;;;;;;;10.43;5.77;;;23.00;52.70;;;;;;5033828;28;20945;-50
2023/06/08 06:02:41;;;;;;;11.33;6.10;;;23.20;52.40;;;;;;5016156;28;20445;-51
2023/06/08 06:05:09;;;;;;;9.83;5.47;;;23.40;52.00;;;;;;5033888;28;20477;-50
2023/06/08 06:07:35;;;;;;;8.77;5.67;;;23.60;51.50;;;;;;5033617;28;20470;-50
2023/06/08 06:10:02;;;;;;;11.40;5.87;;;23.80;51.70;;;;;;5033272;28;20492;-49
2023/06/08 06:12:30;;;;;;;19.30;5.50;;;23.90;50.80;;;;;;5031520;28;20469;-53
2023/06/08 06:14:57;;;;;;;12.63;5.83;;;24.00;50.60;;;;;;5033793;28;20983;-49
2023/06/08 06:17:24;;;;;;;8.23;6.30;;;24.60;51.40;;;;;;5034492;28;20454;-50
2023/06/08 06:19:50;;;;;;;5.70;4.77;;;24.30;50.80;;;;;;5033865;28;20434;-50
2023/06/08 06:22:17;;;;;;;8.30;5.50;;;24.40;50.30;;;;;;5015726;28;20975;-50
2023/06/08 06:24:44;;;;;;;11.83;5.77;;;24.50;50.40;;;;;;5026156;28;20771;-50
2023/06/08 06:27:11;;;;;;;7.10;4.53;;;24.50;50.50;;;;;;5013529;28;20543;-50
2023/06/08 06:29:39;;;;;;;11.73;5.13;;;24.60;50.10;;;;;;5030215;28;20497;-50
2023/06/08 06:32:08;;;;;;;6.47;5.00;;;24.60;49.80;;;;;;5033158;28;20966;-49
2023/06/08 06:34:35;;;;;;;8.13;5.10;;;24.70;49.70;;;;;;5032927;28;20956;-52
2023/06/08 06:37:01;;;;;;;6.20;5.10;;;24.80;49.70;;;;;;5033043;28;20458;-49
2023/06/08 06:39:28;;;;;;;16.10;5.23;;;24.80;49.50;;;;;;5014561;28;20952;-50
2023/06/08 06:41:55;;;;;;;7.80;5.20;;;24.80;49.50;;;;;;5015237;28;20573;-50
2023/06/08 06:44:24;;;;;;;6.67;4.80;;;24.80;49.50;;;;;;5015029;28;20474;-49
2023/06/08 06:46:52;;;;;;;10.00;4.70;;;24.80;49.10;;;;;;5032637;28;21045;-48
2023/06/08 06:49:19;;;;;;;8.17;5.27;;;24.90;49.20;;;;;;5014362;28;20458;-48
2023/06/08 06:51:45;;;;;;;11.57;5.50;;;24.90;49.20;;;;;;5032551;28;20532;-49
2023/06/08 06:54:12;;;;;;;7.00;4.70;;;24.90;49.40;;;;;;5033013;28;20448;-50
2023/06/08 06:56:39;;;;;;;5.70;4.63;;;24.90;49.10;;;;;;5032441;28;20584;-49
2023/06/08 06:59:05;;;;;;;4.93;4.30;;;25.10;49.00;;;;;;5032362;28;20451;-50
2023/06/08 07:01:35;;;;;;;6.70;4.63;;;24.80;49.00;;;;;;5032579;28;20477;-49
2023/06/08 07:04:04;;;;;;;9.20;4.67;;;24.70;48.90;;;;;;5032805;28;20547;-50
2023/06/08 07:06:31;;;;;;;7.10;5.00;;;24.70;49.00;;;;;;5033972;28;20530;-50
2023/06/08 07:08:58;;;;;;;9.50;5.03;;;24.70;48.90;;;;;;5032345;28;20431;-49
2023/06/08 07:11:24;;;;;;;6.37;4.23;;;24.60;49.10;;;;;;5032562;28;20438;-50
2023/06/08 07:13:51;;;;;;;6.73;5.10;;;24.80;49.40;;;;;;5032093;28;20804;-49
2023/06/08 07:16:21;;;;;;;7.80;5.00;;;24.90;49.40;;;;;;5029636;28;20463;-52
2023/06/08 07:18:48;;;;;;;5.20;4.70;;;25.00;49.50;;;;;;5031540;28;20442;-51
2023/06/08 07:21:19;;;;;;;7.07;5.33;;;25.10;49.60;;;;;;5032036;28;20452;-50
2023/06/08 07:23:47;;;;;;;6.80;4.80;;;25.20;49.50;;;;;;5016004;28;20432;-51
2023/06/08 07:26:13;;;;;;;8.03;4.50;;;25.30;49.70;;;;;;5031678;28;20490;-50
2023/06/08 07:28:40;;;;;;;13.73;6.90;;;25.20;50.10;;;;;;5013084;28;20451;-50
2023/06/08 07:31:06;;;;;;;7.40;4.70;;;25.30;49.20;;;;;;5031835;28;20965;-48
2023/06/08 07:33:33;;;;;;;6.27;4.40;;;25.30;49.30;;;;;;5031933;28;20443;-50
2023/06/08 07:36:00;;;;;;;7.20;5.33;;;25.40;49.20;;;;;;5031937;28;20432;-51
2023/06/08 07:38:28;;;;;;;5.80;4.77;;;25.20;49.20;;;;;;5030932;28;20451;-48
2023/06/08 07:40:55;;;;;;;7.50;4.60;;;25.30;49.50;;;;;;5013819;28;20469;-52
2023/06/08 07:43:21;;;;;;;8.43;5.53;;;25.30;49.70;;;;;;5031280;28;20442;-49
2023/06/08 07:45:48;;;;;;;13.73;4.57;;;25.10;49.60;;;;;;5031617;28;20486;-51
2023/06/08 07:48:14;;;;;;;6.47;4.80;;;25.30;49.60;;;;;;5030775;28;20456;-49
2023/06/08 07:50:41;;;;;;;6.80;5.47;;;25.40;49.40;;;;;;5031564;28;20444;-50
2023/06/08 07:53:07;;;;;;;6.23;4.60;;;25.20;49.50;;;;;;5031419;28;20443;-51
2023/06/08 07:55:35;;;;;;;7.03;4.90;;;25.20;49.20;;;;;;5031353;28;20486;-49
2023/06/08 07:58:02;;;;;;;5.47;4.93;;;25.20;49.60;;;;;;5028871;28;20587;-50
2023/06/08 08:00:31;;;;;;;7.67;5.00;;;25.30;50.00;;;;;;5024218;28;20478;-50
2023/06/08 08:02:57;;;;;;;5.40;4.50;;;25.30;50.10;;;;;;5031326;28;20963;-49
2023/06/08 08:05:24;;;;;;;8.50;4.60;;;25.30;50.10;;;;;;5029664;28;20479;-50
2023/06/08 08:07:50;;;;;;;5.60;4.30;;;25.40;50.10;;;;;;5026292;28;20479;-50
2023/06/08 08:10:17;;;;;;;5.97;5.13;;;25.50;50.10;;;;;;5030530;28;20447;-50
2023/06/08 08:12:45;;;;;;;8.23;4.80;;;25.40;50.50;;;;;;5031289;28;20867;-49
2023/06/08 08:15:12;;;;;;;4.20;3.80;;;25.80;50.80;;;;;;5031140;28;20805;-49
2023/06/08 08:17:38;;;;;;;8.63;5.50;;;25.50;50.70;;;;;;5031303;28;20458;-50
2023/06/08 08:20:07;;;;;;;10.67;4.90;;;25.30;50.70;;;;;;5030733;28;20474;-50
2023/06/08 08:22:34;;;;;;;7.87;5.03;;;25.50;51.00;;;;;;5028729;28;20451;-49
2023/06/08 08:25:01;;;;;;;12.20;5.07;;;25.50;50.70;;;;;;5027665;28;20475;-50
2023/06/08 08:27:28;;;;;;;6.40;5.20;;;25.50;50.40;;;;;;5035173;28;20983;-50
2023/06/08 08:29:55;;;;;;;7.20;4.80;;;25.70;50.00;;;;;;5034441;28;20446;-49
2023/06/08 08:32:23;;;;;;;8.17;4.60;;;25.60;49.40;;;;;;5034808;28;20443;-48
2023/06/08 08:34:50;;;;;;;6.17;4.83;;;25.50;49.40;;;;;;5035141;28;20443;-49
2023/06/08 08:37:17;;;;;;;10.53;4.40;;;25.30;49.20;;;;;;5034700;28;20553;-50
2023/06/08 08:39:44;;;;;;;10.00;4.80;;;25.60;49.70;;;;;;5034211;28;20440;-49
2023/06/08 08:42:13;;;;;;;7.10;4.90;;;25.60;49.70;;;;;;5027549;28;20458;-50
2023/06/08 08:44:41;;;;;;;6.57;4.80;;;25.70;49.50;;;;;;5029826;28;20480;-49
2023/06/08 08:47:13;;;;;;;7.33;5.60;;;25.40;49.70;;;;;;5034578;28;20477;-48
2023/06/08 08:49:43;;;;;;;7.63;4.87;;;25.80;49.90;;;;;;5034114;28;20517;-49
2023/06/08 08:52:10;;;;;;;8.02;5.00;;;25.80;50.00;;;;;;5033082;28;20445;-50
2023/06/08 08:54:38;;;;;;;7.70;4.27;;;26.30;48.30;;;;;;5034687;28;20750;-49
2023/06/08 08:57:09;;;;;;;5.83;4.87;;;26.10;48.40;;;;;;5034125;28;20474;-48
2023/06/08 08:59:37;;;;;;;8.87;5.00;;;26.10;48.20;;;;;;5023568;28;20573;-50
2023/06/08 09:02:05;;;;;;;6.77;4.20;;;26.10;47.90;;;;;;5032797;28;20581;-49
2023/06/08 09:04:33;;;;;;;7.20;5.27;;;26.00;47.90;;;;;;5031375;28;20435;-50
2023/06/08 09:06:59;;;;;;;7.30;5.37;;;26.00;47.80;;;;;;5028749;28;20491;-50
2023/06/08 09:09:26;;;;;;;6.60;4.47;;;26.10;48.00;;;;;;5031529;28;20450;-51
2023/06/08 09:11:57;;;;;;;7.70;4.60;;;26.10;47.80;;;;;;5031064;28;20447;-49
2023/06/08 09:14:24;;;;;;;13.03;5.10;;;26.10;47.90;;;;;;5034263;28;20939;-50
2023/06/08 09:16:52;;;;;;;6.07;4.67;;;26.20;47.70;;;;;;5033955;28;20467;-49
2023/06/08 09:19:19;;;;;;;11.20;4.80;;;26.40;47.80;;;;;;5032310;28;20451;-50
2023/06/08 09:21:47;;;;;;;8.70;4.37;;;26.20;48.00;;;;;;5016393;28;20550;-52
2023/06/08 09:24:16;;;;;;;8.98;5.20;;;26.30;48.40;;;;;;5033625;28;20433;-49
2023/06/08 09:26:47;;;;;;;12.33;4.90;;;26.60;48.60;;;;;;5033469;28;20297;-50
2023/06/08 09:29:31;;;;;;;7.07;5.43;;;26.60;48.20;;;;;;5044254;28;20483;-50
2023/06/08 09:31:59;;;;;;;5.77;4.40;;;26.80;47.80;;;;;;5019894;28;20438;-51
2023/06/08 09:34:29;;;;;;;4.73;4.23;;;27.00;47.40;;;;;;5034244;28;20451;-50
2023/06/08 09:37:07;;;;;;;8.97;4.80;;;27.00;47.00;;;;;;5030912;28;20456;-49
2023/06/08 09:39:40;;;;;;;9.27;4.53;;;27.20;46.80;;;;;;5030920;28;20430;-50
2023/06/08 09:42:07;;;;;;;5.95;4.60;;;27.60;46.10;;;;;;5028133;28;20477;-50
2023/06/08 09:44:35;;;;;;;8.27;5.50;;;27.90;45.70;;;;;;5028659;28;20220;-48
2023/06/08 09:47:19;;;;;;;9.27;4.37;;;27.80;45.80;;;;;;5029738;28;20582;-50
2023/06/08 09:49:46;;;;;;;7.43;4.40;;;27.60;45.80;;;;;;5018539;28;20474;-50
2023/06/08 09:52:15;;;;;;;7.60;4.83;;;27.70;45.90;;;;;;5032985;28;20803;-50
2023/06/08 09:54:46;;;;;;;8.63;4.50;;;27.60;46.00;;;;;;5032183;28;20450;-49
2023/06/08 09:57:13;;;;;;;11.73;5.50;;;27.50;46.30;;;;;;5033651;28;20459;-50
2023/06/08 09:59:47;;;;;;;6.07;4.80;;;27.40;46.60;;;;;;5033071;28;21644;-49
2023/06/08 10:02:25;;;;;;;4.83;4.33;;;27.20;46.70;;;;;;5031465;28;20467;-50
2023/06/08 10:04:55;;;;;;;5.83;4.80;;;27.50;47.00;;;;;;5030143;28;20447;-49
2023/06/08 10:07:29;;;;;;;7.13;5.07;;;27.30;46.90;;;;;;5033074;28;20535;-50
2023/06/08 10:10:04;;;;;;;5.57;4.37;;;27.30;47.10;;;;;;5032930;28;20428;-49
2023/06/08 10:12:31;;;;;;;5.73;4.60;;;27.20;47.10;;;;;;5028049;28;20740;-51
2023/06/08 10:14:58;;;;;;;5.20;4.70;;;27.10;47.30;;;;;;5033164;28;20530;-50
2023/06/08 10:17:27;;;;;;;6.83;4.73;;;27.20;46.80;;;;;;5033473;28;20502;-50
2023/06/08 10:19:53;;;;;;;6.03;4.53;;;27.20;46.70;;;;;;5032981;28;20595;-50
2023/06/08 10:22:20;;;;;;;8.77;5.27;;;27.20;46.70;;;;;;5033198;28;20513;-50
2023/06/08 10:24:49;;;;;;;7.43;4.87;;;27.20;46.70;;;;;;5033337;28;20447;-49
2023/06/08 10:27:27;;;;;;;4.43;3.90;;;26.90;46.50;;;;;;5033197;28;20498;-50
2023/06/08 10:29:55;;;;;;;5.20;4.30;;;27.20;46.60;;;;;;5017408;28;20931;-50
2023/06/08 10:32:30;;;;;;;7.90;4.17;;;27.20;46.70;;;;;;5015228;28;20487;-52
2023/06/08 10:34:57;;;;;;;7.87;4.53;;;27.00;46.60;;;;;;5032868;28;20500;-52
2023/06/08 10:37:28;;;;;;;4.93;4.30;;;27.20;46.80;;;;;;5018114;28;20529;-51
2023/06/08 10:39:58;;;;;;;6.30;4.63;;;27.20;46.50;;;;;;5032496;28;20436;-51
2023/06/08 10:42:25;;;;;;;6.37;4.13;;;27.30;46.70;;;;;;5032215;28;20443;-50
2023/06/08 10:44:56;;;;;;;6.10;4.57;;;27.30;46.60;;;;;;5032448;28;20442;-51
2023/06/08 10:47:23;;;;;;;6.70;4.35;;;27.10;46.80;;;;;;5030184;28;20449;-53
2023/06/08 10:49:56;;;;;;;8.20;4.43;;;27.60;46.80;;;;;;5030526;28;20202;-52
2023/06/08 10:52:24;;;;;;;7.27;4.30;;;27.50;47.00;;;;;;5029214;28;20455;-51
2023/06/08 10:54:55;;;;;;;9.33;4.57;;;27.50;46.70;;;;;;5037777;28;20447;-53
2023/06/08 10:57:41;;;;;;;7.50;5.10;;;27.40;46.40;;;;;;5029801;28;20487;-52
2023/06/08 11:00:41;;;;;;;7.07;4.40;;;27.60;46.40;;;;;;5018556;28;20815;-51
2023/06/08 11:03:10;;;;;;;10.40;4.53;;;27.60;46.30;;;;;;5032402;28;20500;-52
2023/06/08 11:05:55;;;;;;;6.50;5.10;;;27.60;46.40;;;;;;5032327;28;20442;-53
2023/06/08 11:08:22;;;;;;;6.03;4.50;;;27.70;46.10;;;;;;5026228;28;20438;-53
2023/06/08 11:10:54;;;;;;;11.45;4.72;;;27.80;45.80;;;;;;5013884;28;20107;-52
2023/06/08 11:13:23;;;;;;;7.18;4.72;;;27.90;45.60;;;;;;5008647;28;20450;-52
2023/06/08 11:15:52;;;;;;;4.50;4.00;;;28.30;45.50;;;;;;5028413;28;20248;-51
2023/06/08 11:18:20;;;;;;;8.47;4.90;;;28.30;45.40;;;;;;5013244;28;20556;-51
2023/06/08 11:20:47;;;;;;;6.93;4.63;;;28.30;45.30;;;;;;5023798;28;21100;-52
2023/06/08 11:23:14;;;;;;;6.40;4.17;;;28.30;44.70;;;;;;5031812;28;20451;-52
2023/06/08 11:25:44;;;;;;;5.93;4.20;;;28.40;44.70;;;;;;5042984;28;20454;-52
2023/06/08 11:28:12;;;;;;;7.43;4.57;;;28.60;44.00;;;;;;5013177;28;20459;-52
2023/06/08 11:30:40;;;;;;;6.13;4.50;;;28.40;43.60;;;;;;5027141;28;20971;-52
2023/06/08 11:33:08;;;;;;;5.87;5.33;;;28.50;44.00;;;;;;5026619;28;20442;-51
2023/06/08 11:35:36;;;;;;;6.43;4.57;;;28.50;44.30;;;;;;5031803;28;20458;-51
2023/06/08 11:38:04;;;;;;;5.00;4.50;;;28.40;44.10;;;;;;5031531;28;20463;-51
2023/06/08 11:40:33;;;;;;;6.80;4.40;;;28.50;43.50;;;;;;5031060;28;20963;-52
2023/06/08 11:43:01;;;;;;;5.80;4.60;;;28.50;43.50;;;;;;5031400;28;20649;-53
2023/06/08 11:45:28;;;;;;;8.20;4.67;;;28.40;43.10;;;;;;5013183;28;20455;-51
2023/06/08 11:47:57;;;;;;;4.33;3.83;;;28.40;43.50;;;;;;5012001;28;20502;-49
2023/06/08 11:50:24;;;;;;;6.30;4.40;;;28.30;42.70;;;;;;5008920;28;20449;-47
2023/06/08 11:52:57;;;;;;;6.20;5.10;;;28.30;42.50;;;;;;5013277;28;20499;-48
2023/06/08 11:55:26;;;;;;;7.60;4.67;;;28.20;42.70;;;;;;5012591;28;20872;-48
2023/06/08 11:57:55;;;;;;;4.93;4.40;;;28.20;43.20;;;;;;5026647;28;20460;-50
2023/06/08 12:00:23;;;;;;;5.37;4.67;;;28.20;43.80;;;;;;5012795;28;20497;-47
2023/06/08 12:02:51;;;;;;;6.77;5.07;;;28.20;43.90;;;;;;5030604;28;20488;-50
2023/06/08 12:05:23;;;;;;;8.33;4.87;;;28.10;43.70;;;;;;4997627;28;20537;-48
2023/06/08 12:07:58;;;;;;;8.87;5.70;;;28.10;43.70;;;;;;5024500;28;20559;-50
2023/06/08 12:10:32;;;;;;;5.70;5.10;;;28.10;43.50;;;;;;5030490;28;20431;-49
2023/06/08 12:13:00;;;;;;;7.47;4.83;;;28.10;44.30;;;;;;5017601;28;20448;-50
2023/06/08 12:15:27;;;;;;;8.70;5.03;;;28.10;44.60;;;;;;5028642;28;20451;-48
2023/06/08 12:17:58;;;;;;;10.33;4.43;;;28.10;44.60;;;;;;5030737;28;20508;-50
2023/06/08 12:20:31;;;;;;;7.17;5.03;;;28.20;44.50;;;;;;5026860;28;20559;-48
2023/06/08 12:22:58;;;;;;;8.30;4.57;;;28.20;44.50;;;;;;5025372;28;20484;-49
2023/06/08 12:25:24;;;;;;;13.43;5.40;;;28.20;44.80;;;;;;5027335;28;20553;-48
2023/06/08 12:27:51;;;;;;;6.57;4.70;;;28.20;44.50;;;;;;5027718;28;20458;-47
2023/06/08 12:30:17;;;;;;;8.00;4.63;;;28.40;43.70;;;;;;5019585;28;20226;-51
2023/06/08 12:32:44;;;;;;;6.00;4.90;;;28.30;43.90;;;;;;5031055;28;20447;-49
2023/06/08 12:35:11;;;;;;;11.67;5.40;;;28.30;43.80;;;;;;5030561;28;20439;-48
2023/06/08 12:37:40;;;;;;;7.13;4.90;;;28.30;43.80;;;;;;5030302;28;20477;-49
2023/06/08 12:40:08;;;;;;;7.13;5.10;;;28.40;43.30;;;;;;5030108;28;20470;-48
2023/06/08 12:42:35;;;;;;;8.57;4.60;;;28.40;42.90;;;;;;5030533;28;20446;-47
2023/06/08 12:45:02;;;;;;;6.27;5.67;;;28.40;43.10;;;;;;5031009;28;20959;-48
2023/06/08 12:47:29;;;;;;;10.20;5.37;;;28.40;42.90;;;;;;5030128;28;20853;-49
2023/06/08 12:50:25;;;;;;;8.60;4.57;;;28.50;42.70;;;;;;5027888;28;22510;-49
2023/06/08 12:52:53;;;;;;;6.93;4.90;;;28.50;42.20;;;;;;5012653;28;20509;-48